ADDS METAR Data INFO
IDs: Format: Raw Decoded Include TAF

Data at: 2038 UTC 22 Feb 2018

KOCW 222015Z AUTO 26007KT 10SM BKN050 26/16 A3039 RMK AO2 T02590160
KOCW 221955Z AUTO 26005KT 10SM BKN050 26/16 A3040 RMK AO2 T02620164
KOCW 221935Z AUTO 00000KT 10SM SCT043 BKN050 25/17 A3041 RMK AO2 T02530165
KOCW 221915Z AUTO 23004KT 10SM SCT044 BKN050 27/16 A3041 RMK AO2 T02690157
KOCW 221855Z AUTO 23011KT 10SM SCT040 SCT047 BKN050 26/16 A3042 RMK AO2 T02560160
KOCW 221835Z AUTO 24007KT 10SM SCT036 BKN047 27/16 A3042 RMK AO2 T02650163
KOCW 221815Z AUTO 25004KT 10SM BKN036 BKN042 BKN050 25/17 A3043 RMK AO2 T02540165
KOCW 221755Z AUTO 21007G14KT 170V230 10SM SCT036 BKN050 25/16 A3044 RMK AO2 T02490163 10265 20185
KOCW 221735Z AUTO 21010G16KT 10SM SCT034 OVC048 26/17 A3045 RMK AO2 T02590168
KOCW 221715Z AUTO 21008KT 10SM SCT027 SCT033 OVC046 25/17 A3046 RMK AO2 T02500171
KOCW 221655Z AUTO 21009KT 10SM SCT027 SCT038 OVC045 25/18 A3047 RMK AO2 T02450175
KOCW 221635Z AUTO 23009KT 10SM SCT025 SCT033 OVC043 24/18 A3048 RMK AO2 T02440179
KOCW 221615Z AUTO 22010G15KT 10SM SCT023 SCT032 OVC039 24/18 A3049 RMK AO2 T02350178
KOCW 221555Z AUTO 26009KT 10SM SCT020 SCT026 BKN041 23/18 A3049 RMK AO2 T02340180
KOCW 221535Z AUTO 24010KT 10SM BKN018 BKN038 23/18 A3049 RMK AO2 T02330181
KOCW 221515Z AUTO 25009KT 10SM OVC016 23/19 A3049 RMK AO2 T02310186
KOCW 221455Z AUTO 22008KT 190V260 10SM OVC012 22/19 A3049 RMK AO2 T02190186
KOCW 221435Z AUTO 23007KT 10SM OVC010 21/19 A3049 RMK AO2 T02100187
KOCW 221415Z AUTO 22006KT 10SM OVC008 20/19 A3050 RMK AO2 T02000186
KOCW 221355Z AUTO 21007KT 10SM OVC006 20/19 A3050 RMK AO2 T01950185
KOCW 221335Z AUTO 21006KT 10SM OVC006 19/18 A3050 RMK AO2 T01920183
KOCW 221315Z AUTO 20006KT 7SM OVC004 19/18 A3049 RMK AO2 T01880181
KOCW 221255Z AUTO 22005KT 5SM BR OVC004 19/18 A3049 RMK AO2 T01860180
KOCW 221235Z AUTO 21006KT 5SM BR OVC004 19/18 A3048 RMK AO2 T01850180
KOCW 221215Z AUTO 23008KT 5SM BR OVC004 19/18 A3048 RMK AO2 T01850180
KOCW 221155Z AUTO 23005KT 7SM OVC004 19/18 A3047 RMK AO2 T01850180 10185 20170
KOCW 221135Z AUTO 22004KT 5SM BR OVC004 18/18 A3047 RMK AO2 T01830180
KOCW 221115Z AUTO 22005KT 5SM BR OVC004 18/18 A3047 RMK AO2 T01820178
KOCW 221055Z AUTO 22005KT 5SM BR OVC004 18/18 A3046 RMK AO2 T01810177
KOCW 221035Z AUTO 21005KT 5SM BR OVC004 18/18 A3046 RMK AO2 T01810177
KOCW 221015Z AUTO 20003KT 4SM BR OVC004 18/18 A3045 RMK AO2 T01780175
KOCW 220955Z AUTO 19003KT 5SM BR OVC004 18/17 A3045 RMK AO2 T01760172
KOCW 220935Z AUTO 21003KT 7SM OVC004 18/17 A3045 RMK AO2 T01750171
KOCW 220915Z AUTO 00000KT 5SM BR BKN004 OVC018 17/17 A3045 RMK AO2 T01730170
KOCW 220855Z AUTO 00000KT 7SM SCT004 BKN018 17/17 A3045 RMK AO2 T01730170
KOCW 220835Z AUTO 00000KT 7SM SCT018 17/17 A3045 RMK AO2 T01740170
KOCW 220815Z AUTO 00000KT 7SM BKN018 17/17 A3045 RMK AO2 T01720168
KOCW 220755Z AUTO 00000KT 2 1/2SM BR SCT018 17/17 A3045 RMK AO2 T01710167
KOCW 220735Z AUTO 00000KT 5SM BR CLR 17/17 A3045 RMK AO2 T01720167
KOCW 220715Z AUTO 00000KT 10SM CLR 18/17 A3045 RMK AO2 T01750170
KOCW 220655Z AUTO 00000KT 10SM CLR 18/17 A3045 RMK AO2 T01760171
KOCW 220635Z AUTO 00000KT 10SM CLR 18/17 A3045 RMK AO2 T01790172
KOCW 220615Z AUTO 19004KT 10SM CLR 18/17 A3045 RMK AO2 T01800173
KOCW 220555Z AUTO 18003KT 10SM CLR 18/17 A3045 RMK AO2 T01800173 10221 20180 402810150
KOCW 220535Z AUTO 19003KT 10SM CLR 18/17 A3046 RMK AO2 T01810172
KOCW 220515Z AUTO 19003KT 10SM CLR 18/17 A3046 RMK AO2 T01830173
KOCW 220455Z AUTO 19003KT 10SM CLR 19/17 A3046 RMK AO2 T01850174
KOCW 220435Z AUTO 20003KT 10SM CLR 19/17 A3046 RMK AO2 T01850174
KOCW 220415Z AUTO 19004KT 10SM CLR 19/17 A3046 RMK AO2 T01850173
KOCW 220355Z AUTO 18003KT 10SM CLR 19/17 A3045 RMK AO2 T01880172
KOCW 220035Z AUTO 17005KT 10SM CLR 21/17 A3042 RMK AO2 T02130167
KOCW 220015Z AUTO 18005KT 10SM CLR 22/17 A3042 RMK AO2 T02160166
KOCW 212355Z AUTO 18004KT 10SM CLR 22/17 A3042 RMK AO2 T02210166 10281 20221
KOCW 212335Z AUTO 17005KT 10SM CLR 23/17 A3042 RMK AO2 T02300167
KOCW 212315Z AUTO 16005KT 10SM CLR 24/16 A3041 RMK AO2 T02350160
KOCW 212255Z AUTO 19003KT 10SM CLR 24/16 A3041 RMK AO2 T02420158
KOCW 212235Z AUTO 00000KT 10SM CLR 25/16 A3041 RMK AO2 T02490155
KOCW 212215Z AUTO 20006KT 10SM CLR 26/16 A3041 RMK AO2 T02560155
KOCW 212155Z AUTO 20003KT 10SM SCT048 26/16 A3040 RMK AO2 T02610155
KOCW 212135Z AUTO 23005KT 10SM SCT048 27/15 A3040 RMK AO2 T02690154
KOCW 212115Z AUTO 22007KT 10SM SCT050 27/16 A3040 RMK AO2 T02680155
KOCW 212055Z AUTO 22007KT 160V260 10SM BKN050 28/16 A3040 RMK AO2 T02750156
KOCW 212035Z AUTO 25006KT 10SM SCT046 SCT055 26/16 A3040 RMK AO2 T02640157
KOCW 212015Z AUTO 21007KT 10SM SCT046 27/15 A3040 RMK AO2 T02680152
KOCW 211955Z AUTO 22007KT 10SM BKN046 28/16 A3041 RMK AO2 T02790157
KOCW 211935Z AUTO 23008KT 10SM SCT046 SCT050 27/15 A3041 RMK AO2 T02730152
KOCW 211915Z AUTO 24011KT 10SM SCT041 SCT050 27/15 A3042 RMK AO2 T02720154
KOCW 211855Z AUTO 22007KT 10SM SCT041 BKN050 26/16 A3042 RMK AO2 T02640160
KOCW 211835Z AUTO 26007KT 10SM SCT039 BKN047 26/16 A3043 RMK AO2 T02570158
KOCW 211815Z AUTO 22010G16KT 10SM SCT038 27/16 A3044 RMK AO2 T02730160
KOCW 211755Z AUTO 22011G14KT 10SM SCT032 SCT038 27/16 A3045 RMK AO2 T02650161 10265 20160
KOCW 211735Z AUTO 25010G14KT 10SM BKN030 26/17 A3046 RMK AO2 T02550170
KOCW 211715Z AUTO 22012G17KT 10SM SCT026 SCT032 26/17 A3047 RMK AO2 T02560170
KOCW 211655Z AUTO 23012G15KT 10SM SCT024 24/18 A3048 RMK AO2 T02420177
KOCW 211635Z AUTO 23013KT 10SM BKN022 BKN026 23/19 A3049 RMK AO2 T02290192
KOCW 211615Z AUTO 23009KT 10SM BKN016 BKN022 23/19 A3049 RMK AO2 T02260194
KOCW 211555Z AUTO 23007KT 10SM BKN012 OVC018 22/20 A3050 RMK AO2 T02220197
KOCW 211535Z AUTO 22007KT 10SM OVC010 21/20 A3050 RMK AO2 T02050199
KOCW 211515Z AUTO 21006KT 10SM OVC005 20/19 A3050 RMK AO2 T01950191
KOCW 211455Z AUTO 22004KT 5SM BR OVC003 19/19 A3051 RMK AO2 T01900186
KOCW 211435Z AUTO 22005KT 2 1/2SM BR OVC003 19/18 A3051 RMK AO2 T01860182
KOCW 211415Z AUTO 23004KT 1 3/4SM BR OVC003 19/18 A3051 RMK AO2 T01850181
KOCW 211355Z AUTO 24004KT 3/4SM BR OVC003 18/18 A3051 RMK AO2 T01810177
KOCW 211335Z AUTO 24004KT 1/4SM FG OVC003 18/18 A3051 RMK AO2 T01800176
KOCW 211315Z AUTO 26003KT M1/4SM FG OVC003 18/18 A3050 RMK AO2 T01800175
KOCW 211255Z AUTO 26003KT 1/4SM FG OVC003 18/17 A3050 RMK AO2 T01760172